Latest Weather Observations for Bairnsdale

IDV60801

Issued at 12:31 pm EST Saturday 23 May 2015 (issued every 30 minutes, with the page automatically refreshed every 10 minutes)

About weather observations | Map of weather stations | Latest weather observations for VIC | Other Formats
Station Details ID: 085279 Name: BAIRNSDALE AIRPORT Lat: -37.88 Lon: 147.57 Height: 49.4 m
Data from the previous 72 hours. | See also: Recent months at Bairnsdale
Date/Time
EST
Temp
°C
App
Temp
°C
Dew
Point
Rel
Hum
%
Delta-T
°C
Wind Press
QNH
hPa
Press
MSL
hPa
Rain
since 9 am
mm
Dir
 
Spd
km/h
Gust
km/h
Spd
kts
Gust
kts
23/12:30pm 12.2 7.7 6.0 66 2.9 W 19 24 10 13 1031.1 1031.1 0.0
23/12:00pm 12.4 7.8 6.7 68 2.7 W 20 30 11 16 1031.6 1031.6 0.0
23/11:30am 11.6 7.5 6.1 69 2.6 WSW 17 24 9 13 1032.1 1032.1 0.0
23/11:00am 11.2 6.7 5.9 70 2.4 W 19 28 10 15 1032.4 1032.4 0.0
23/10:30am 10.8 6.1 5.3 69 2.5 W 19 26 10 14 1032.5 1032.5 0.0
23/10:00am 10.4 6.6 5.8 73 2.1 WNW 15 22 8 12 1032.5 1032.5 0.0
23/09:30am 9.4 5.6 5.8 78 1.6 NW 15 20 8 11 1032.6 1032.6 0.0
23/09:00am 9.2 5.8 5.8 79 1.5 NW 13 17 7 9 1032.5 1032.5 0.0
23/08:30am 9.6 6.0 5.2 74 2.0 WNW 13 17 7 9 1032.2 1032.2 0.0
23/08:00am 9.2 5.6 5.2 76 1.8 WNW 13 17 7 9 1032.1 1032.1 0.0
23/07:30am 9.1 5.5 5.1 76 1.8 WNW 13 17 7 9 1031.9 1031.9 0.0
23/07:00am 9.2 5.3 5.2 76 1.8 WNW 15 19 8 10 1031.7 1031.7 0.0
23/06:30am 9.1 5.6 5.3 77 1.7 WNW 13 19 7 10 1031.4 1031.4 0.0
23/06:00am 9.0 6.3 5.4 78 1.6 WNW 9 13 5 7 1031.2 1031.2 0.0
23/05:30am 9.2 5.7 5.4 77 1.7 W 13 17 7 9 1031.1 1031.1 0.0
23/05:00am 9.2 6.2 5.8 79 1.5 W 11 17 6 9 1030.8 1030.8 0.0
23/04:30am 9.2 6.2 5.8 79 1.6 WNW 11 17 6 9 1030.7 1030.7 0.0
23/04:00am 9.3 6.3 5.9 79 1.5 WNW 11 17 6 9 1030.5 1030.5 0.0
23/03:30am 9.2 5.8 5.9 80 1.5 WNW 13 19 7 10 1030.4 1030.4 0.0
23/03:00am 9.0 6.4 5.9 81 1.4 WNW 9 13 5 7 1030.5 1030.5 0.0
23/02:30am 9.0 6.0 5.9 81 1.4 WNW 11 13 6 7 1030.7 1030.7 0.0
23/02:00am 9.1 5.7 5.8 80 1.5 WNW 13 19 7 10 1030.8 1030.8 0.0
23/01:30am 9.1 5.7 5.8 80 1.5 WNW 13 17 7 9 1030.7 1030.7 0.0
23/01:00am 8.7 5.4 6.3 85 1.1 WNW 13 17 7 9 1030.8 1030.8 0.0
23/12:30am 8.4 4.7 6.2 86 1.0 WNW 15 19 8 10 1031.0 1031.0 0.0
23/12:00am 7.9 4.1 5.7 86 1.0 WNW 15 20 8 11 1031.1 1031.1 0.0
 
Date/Time
EST
Temp
°C
App
Temp
°C
Dew
Point
Rel
Hum
%
Delta-T
°C
Wind Press
QNH
hPa
Press
MSL
hPa
Rain
since 9 am
mm
Dir
 
Spd
km/h
Gust
km/h
Spd
kts
Gust
kts
22/11:30pm 7.9 4.0 5.4 84 1.1 W 15 20 8 11 1031.2 1031.2 0.0
22/11:00pm 8.3 4.1 5.8 84 1.1 W 17 22 9 12 1031.0 1031.0 0.0
22/10:30pm 8.3 4.9 6.1 86 1.0 WSW 13 22 7 12 1030.9 1030.9 0.0
22/10:00pm 9.4 6.3 7.3 87 1.0 W 13 17 7 9 1031.1 1031.1 0.0
22/09:30pm 8.8 5.3 7.3 90 0.7 WSW 15 19 8 10 1030.8 1030.8 0.0
22/09:00pm 8.4 5.2 6.9 90 0.7 SW 13 17 7 9 1030.6 1030.6 0.0
22/08:30pm 8.9 5.4 7.2 89 0.8 SW 15 17 8 9 1030.4 1030.4 0.0
22/08:00pm 10.5 6.8 7.9 84 1.2 SW 17 20 9 11 1030.2 1030.2 0.0
22/07:30pm 11.1 8.1 7.8 80 1.6 W 13 19 7 10 1029.9 1029.9 0.0
22/07:00pm 10.8 8.2 7.7 81 1.5 W 11 15 6 8 1029.6 1029.6 0.0
22/06:30pm 9.5 7.2 7.4 87 1.0 WNW 9 11 5 6 1029.3 1029.4 0.0
22/06:00pm 9.6 7.9 7.4 86 1.0 W 6 6 3 3 1029.2 1029.3 0.0
22/05:30pm 9.6 7.8 7.2 85 1.1 NW 6 7 3 4 1029.0 1029.1 0.0
22/05:00pm 10.2 8.1 6.7 79 1.6 W 7 7 4 4 1028.9 1029.0 0.0
22/04:30pm 12.4 10.7 7.5 72 2.4 W 6 7 3 4 1028.7 1028.8 0.0
22/04:00pm 13.1 11.1 6.2 63 3.3 W 6 6 3 3 1028.5 1028.6 0.0
22/03:30pm 13.3 11.1 6.2 62 3.4 SSW 7 9 4 5 1028.3 1028.4 0.0
22/03:00pm 13.4 10.2 5.3 58 3.8 SSW 11 13 6 7 1028.1 1028.2 0.0
22/02:30pm 14.3 10.2 6.2 58 3.9 SW 17 20 9 11 1027.8 1027.9 0.0
22/02:00pm 13.9 9.7 5.5 57 3.9 SW 17 22 9 12 1027.8 1027.9 0.0
22/01:30pm 13.9 10.7 5.3 56 4.0 SW 11 17 6 9 1027.9 1028.0 0.0
22/01:00pm 14.3 10.9 5.9 57 4.0 SW 13 17 7 9 1027.8 1027.9 0.0
22/12:30pm 13.5 10.9 5.9 60 3.6 SW 9 13 5 7 1028.1 1028.2 0.0
22/12:00pm 13.6 10.8 8.7 72 2.5 SW 13 17 7 9 1028.4 1028.5 0.0
22/11:30am 12.8 11.2 8.7 76 2.1 WNW 7 13 4 7 1028.7 1028.8 0.0
22/11:00am 12.2 10.2 8.7 79 1.7 W 9 13 5 7 1029.1 1029.2 0.0
22/10:30am 11.3 8.5 8.5 83 1.4 WSW 13 17 7 9 1029.2 1029.3 0.0
22/10:00am 11.5 8.7 8.7 83 1.4 SW 13 20 7 11 1029.0 1029.1 0.0
22/09:30am 11.2 9.7 9.1 87 1.0 WSW 7 11 4 6 1028.7 1028.8 0.0
22/09:00am 10.9 8.8 9.8 93 0.6 W 11 15 6 8 1028.7 1028.8 8.2
22/08:30am 11.2 9.4 9.6 90 0.8 SW 9 11 5 6 1028.4 1028.5 8.2
22/08:00am 10.5 8.3 9.4 93 0.5 SW 11 15 6 8 1028.1 1028.2 8.2
22/07:30am 9.9 7.1 8.7 92 0.6 WSW 13 17 7 9 1027.7 1027.8 8.2
22/07:00am 9.5 6.7 8.4 93 0.5 SSW 13 17 7 9 1027.3 1027.4 8.2
22/06:30am 9.4 6.5 8.3 93 0.5 SW 13 15 7 8 1026.8 1026.9 8.2
22/06:00am 8.5 5.5 7.9 96 0.3 SW 13 15 7 8 1026.7 1026.8 8.2
22/05:30am 7.4 4.1 6.5 94 0.4 SW 13 13 7 7 1026.3 1026.4 8.2
22/05:00am 7.9 4.7 6.7 92 0.6 SW 13 15 7 8 1026.1 1026.2 8.2
22/04:30am 8.1 4.5 6.6 90 0.7 SW 15 15 8 8 1025.9 1026.0 8.2
22/04:00am 8.9 5.4 7.2 89 0.8 SW 15 17 8 9 1025.8 1025.9 8.2
22/03:30am 7.4 4.4 6.2 92 0.5 SW 11 13 6 7 1025.7 1025.8 8.2
22/03:00am 7.1 4.4 5.6 90 0.7 SSW 9 11 5 6 1025.8 1025.9 8.2
22/02:30am 9.1 6.2 6.5 84 1.2 S 11 13 6 7 1025.8 1025.9 8.2
22/02:00am 9.8 6.7 7.2 84 1.2 S 13 17 7 9 1025.6 1025.7 8.2
22/01:30am 11.2 7.9 8.2 82 1.5 SSE 15 19 8 10 1025.4 1025.5 8.2
22/01:00am 12.0 8.6 9.0 82 1.5 SSE 17 22 9 12 1025.4 1025.5 8.2
22/12:30am 12.3 10.0 10.4 88 1.0 SSE 13 22 7 12 1025.2 1025.3 8.2
22/12:00am 12.2 10.8 10.9 92 0.7 SE 9 13 5 7 1025.3 1025.4 8.2
 
Date/Time
EST
Temp
°C
App
Temp
°C
Dew
Point
Rel
Hum
%
Delta-T
°C
Wind Press
QNH
hPa
Press
MSL
hPa
Rain
since 9 am
mm
Dir
 
Spd
km/h
Gust
km/h
Spd
kts
Gust
kts
21/11:30pm 12.4 9.8 10.6 89 0.9 ESE 15 20 8 11 1025.2 1025.3 8.2
21/11:00pm 12.4 9.8 10.6 89 0.9 SE 15 20 8 11 1025.1 1025.2 8.2
21/10:30pm 12.2 10.3 10.6 90 0.8 SE 11 15 6 8 1024.9 1025.0 8.2
21/10:00pm 12.5 10.2 10.6 88 1.0 SSE 13 17 7 9 1024.9 1025.0 8.2
21/09:30pm 12.8 10.3 11.0 89 0.9 SE 15 19 8 10 1024.7 1024.8 8.2
21/09:00pm 13.0 9.8 11.2 89 0.9 SE 19 26 10 14 1024.4 1024.5 8.2
21/08:30pm 13.1 9.7 11.2 88 1.0 SE 20 28 11 15 1024.2 1024.3 8.2
21/08:00pm 13.0 10.2 11.4 90 0.8 SE 17 24 9 13 1023.9 1024.0 8.2
21/07:30pm 11.3 10.6 11.3 100 0.0 WNW 6 11 3 6 1023.7 1023.8 8.0
21/07:00pm 11.3 10.6 11.3 100 0.0 N 6 11 3 6 1023.5 1023.6 8.0
21/06:30pm 11.3 10.6 11.3 100 0.0 NW 6 9 3 5 1023.3 1023.4 8.0
21/06:16pm 11.3 10.6 11.3 100 0.0 W 6 7 3 4 1023.1 1023.2 7.8
21/06:10pm 11.4 10.7 11.4 100 0.0 WSW 6 7 3 4 1023.0 1023.0 7.8
21/06:00pm 11.3 10.4 11.3 100 0.0 WSW 7 13 4 7 1023.0 1023.0 7.8
21/05:30pm 11.0 10.2 11.0 100 0.0 SW 6 7 3 4 1022.8 1022.8 6.6
21/05:00pm 10.6 9.7 10.6 100 0.0 NW 6 11 3 6 1022.5 1022.5 6.2
21/04:30pm 10.5 8.6 10.5 100 0.0 WSW 11 17 6 9 1022.4 1022.4 4.4
21/04:17pm 10.5 7.8 10.5 100 0.0 W 15 22 8 12 1022.3 1022.3 3.4
21/04:04pm 10.6 7.6 10.6 100 0.0 W 17 22 9 12 1022.2 1022.2 2.4
21/04:00pm 10.6 7.2 10.6 100 0.0 W 19 26 10 14 1022.2 1022.2 2.0
21/03:53pm 10.6 7.0 10.4 99 0.1 WSW 20 26 11 14 1022.0 1022.0 1.0
21/03:30pm 11.3 8.0 10.8 97 0.3 WSW 19 26 10 14 1022.0 1022.0 0.2
21/03:06pm 11.2 8.2 10.6 96 0.3 WSW 17 24 9 13 1021.8 1021.8 0.2
21/03:00pm 11.1 8.0 10.3 95 0.4 WSW 17 24 9 13 1021.8 1021.8 0.2
21/02:59pm 11.1 8.0 10.3 95 0.4 WSW 17 24 9 13 1021.8 1021.8 0.2
21/02:30pm 10.9 7.4 10.1 95 0.4 WSW 19 24 10 13 1021.7 1021.7 0.2
21/02:22pm 10.9 8.2 10.3 96 0.3 W 15 24 8 13 1021.6 1021.6 0.2
21/02:00pm 10.9 7.4 10.3 96 0.3 W 19 24 10 13 1021.7 1021.7 0.2
21/01:55pm 10.9 7.4 10.1 95 0.4 W 19 28 10 15 1021.6 1021.6 0.2
21/01:38pm 11.0 8.3 10.2 95 0.4 W 15 24 8 13 1021.7 1021.7 0.0
21/01:30pm 11.0 7.3 9.6 91 0.7 W 19 24 10 13 1021.7 1021.7 0.0
21/01:00pm 11.2 7.3 9.6 90 0.8 W 20 28 11 15 1021.9 1021.9 0.0
21/12:48pm 11.2 7.3 9.5 89 0.9 W 20 28 11 15 1022.0 1022.0 0.0
21/12:30pm 11.3 7.4 9.4 88 1.0 W 20 28 11 15 1022.1 1022.1 0.0
21/12:00pm 11.5 7.6 9.4 87 1.1 W 20 28 11 15 1022.3 1022.3 0.0
21/11:47am 11.6 7.7 9.3 86 1.2 W 20 30 11 16 1022.2 1022.2 0.0
21/11:30am 11.8 8.2 9.7 87 1.1 W 19 26 10 14 1022.4 1022.4 0.0
21/11:00am 11.3 6.5 9.0 86 1.1 W 24 32 13 17 1022.4 1022.4 0.0
21/10:30am 11.7 7.4 9.4 86 1.2 W 22 35 12 19 1022.3 1022.3 0.0
21/10:00am 11.3 7.3 9.0 86 1.1 WSW 20 30 11 16 1022.1 1022.1 0.0
21/09:30am 10.9 5.7 9.0 88 0.9 WSW 26 35 14 19 1021.7 1021.7 0.0
21/09:00am 10.9 5.0 9.2 89 0.8 WSW 30 39 16 21 1021.4 1021.4 4.2
21/08:30am 10.4 4.9 9.0 91 0.7 WSW 28 35 15 19 1021.0 1021.0 4.2
21/08:00am 10.6 5.6 9.4 92 0.6 WSW 26 35 14 19 1020.7 1020.7 4.2
21/07:30am 10.7 6.1 9.8 94 0.5 WSW 24 35 13 19 1020.4 1020.4 4.2
21/07:16am 10.7 6.5 9.9 95 0.4 WSW 22 32 12 17 1020.2 1020.2 4.2
21/07:00am 10.8 7.1 10.2 96 0.3 WSW 20 28 11 15 1019.9 1019.9 4.2
21/06:43am 10.8 7.3 10.3 97 0.3 WSW 19 24 10 13 1019.7 1019.7 4.2
21/06:30am 10.9 6.9 10.4 97 0.3 WSW 22 30 12 16 1019.4 1019.4 4.2
21/06:00am 11.0 7.7 11.0 100 0.0 WSW 19 28 10 15 1019.0 1019.0 4.2
21/05:46am 11.0 7.7 11.0 100 0.0 WSW 19 28 10 15 1018.9 1018.9 4.2
21/05:30am 10.9 8.7 10.9 100 0.0 W 13 20 7 11 1018.7 1018.7 4.2
21/05:27am 10.9 8.7 10.9 100 0.0 W 13 17 7 9 1018.7 1018.7 4.2
21/05:00am 10.7 8.9 10.7 100 0.0 NW 11 15 6 8 1018.4 1018.4 4.0
21/04:32am 10.7 9.2 10.7 100 0.0 WNW 9 13 5 7 1018.2 1018.2 3.2
21/04:30am 10.7 8.9 10.7 100 0.0 WNW 11 13 6 7 1018.2 1018.2 3.2
21/04:29am 10.7 8.9 10.7 100 0.0 WNW 11 15 6 8 1018.1 1018.1 3.2
21/04:22am 10.8 8.9 10.6 99 0.1 WNW 11 15 6 8 1018.1 1018.1 2.8
21/04:13am 10.9 9.0 10.6 98 0.2 W 11 17 6 9 1018.1 1018.1 2.4
21/04:00am 11.0 9.5 10.7 98 0.2 WSW 9 13 5 7 1018.0 1018.0 2.4
21/03:45am 11.2 9.0 10.9 98 0.2 WSW 13 17 7 9 1017.8 1017.8 2.4
21/03:31am 11.4 7.8 10.6 95 0.4 WSW 20 28 11 15 1017.7 1017.7 2.2
21/03:30am 11.4 7.8 10.5 94 0.5 WSW 20 28 11 15 1017.7 1017.7 2.2
21/03:00am 12.0 8.9 9.0 82 1.5 WSW 15 20 8 11 1017.7 1017.7 2.0
21/02:30am 11.9 9.5 8.6 80 1.6 WSW 11 15 6 8 1017.4 1017.4 2.0
21/02:00am 11.1 9.4 8.3 83 1.4 NW 7 9 4 5 1017.1 1017.1 2.0
21/01:30am 11.2 9.5 8.2 82 1.5 WSW 7 9 4 5 1016.8 1016.8 2.0
21/01:00am 10.9 9.3 8.1 83 1.4 NW 6 7 3 4 1016.9 1016.9 2.0
21/12:30am 10.6 8.9 8.4 86 1.1 NNW 7 9 4 5 1016.8 1016.8 2.0
21/12:00am 10.3 9.7 7.5 83 1.3 CALM 0 0 0 0 1016.7 1016.7 2.0
 
Date/Time
EST
Temp
°C
App
Temp
°C
Dew
Point
Rel
Hum
%
Delta-T
°C
Wind Press
QNH
hPa
Press
MSL
hPa
Rain
since 9 am
mm
Dir
 
Spd
km/h
Gust
km/h
Spd
kts
Gust
kts
20/11:30pm 11.0 9.2 8.0 82 1.5 NE 7 9 4 5 1016.5 1016.5 2.0
20/11:00pm 10.9 9.3 7.8 81 1.5 ENE 6 7 3 4 1016.4 1016.4 2.0
20/10:30pm 11.8 9.6 7.9 77 1.9 SSW 9 11 5 6 1016.2 1016.2 2.0
20/10:00pm 12.4 10.5 7.5 72 2.4 WSW 7 11 4 6 1016.0 1016.0 2.0
20/09:30pm 11.4 8.4 7.9 79 1.7 SW 13 17 7 9 1015.8 1015.8 2.0
20/09:00pm 10.6 7.5 7.3 80 1.6 SW 13 15 7 8 1015.5 1015.5 2.0
20/08:30pm 11.6 8.7 6.3 70 2.5 WNW 11 13 6 7 1015.2 1015.2 2.0
20/08:00pm 12.4 9.9 6.5 67 2.8 W 9 13 5 7 1014.7 1014.7 2.0
20/07:30pm 12.6 9.7 6.6 67 2.9 WNW 11 15 6 8 1014.4 1014.4 2.0
20/07:00pm 12.8 10.5 7.3 69 2.7 NW 9 13 5 7 1014.0 1014.0 2.0
20/06:30pm 13.5 11.9 8.6 72 2.5 NW 7 9 4 5 1013.7 1013.7 2.0
20/06:00pm 13.6 11.6 8.7 72 2.5 WNW 9 11 5 6 1013.4 1013.4 2.0
20/05:30pm 14.5 12.8 9.9 74 2.4 W 9 19 5 10 1012.9 1012.9 2.0
20/05:00pm 16.1 13.5 9.5 65 3.4 W 13 19 7 10 1012.2 1012.2 1.2
20/04:30pm 16.3 17.0 12.1 76 2.3 CALM 0 9 0 5 1011.8 1011.8 1.2
20/04:00pm 18.3 18.5 11.8 66 3.6 NNW 2 7 1 4 1011.5 1011.5 1.2
20/03:30pm 16.9 15.9 12.4 75 2.5 WSW 9 15 5 8 1011.1 1011.1 1.2
20/03:00pm 19.0 16.7 8.9 52 5.3 W 11 17 6 9 1010.8 1010.8 0.4
20/02:30pm 20.0 18.1 10.4 54 5.2 WSW 11 15 6 8 1010.5 1010.5 0.4
20/02:00pm 18.2 16.9 11.3 64 3.8 NNW 9 15 5 8 1010.4 1010.4 0.4
20/01:30pm 18.2 17.2 11.0 63 3.9 W 7 13 4 7 1010.2 1010.2 0.4
20/01:00pm 17.9 17.4 12.6 71 3.0 SW 7 13 4 7 1010.2 1010.2 0.2

Other Formats:

Comma delimited format used in spreadsheet applications
http://www.bom.gov.au/fwo/IDV60801/IDV60801.94912.axf

JavaScript Object Notation format (JSON) in row-major order
http://www.bom.gov.au/fwo/IDV60801/IDV60801.94912.json